sensor_id;sensor_type;location;lat;lon;timestamp;P1;durP1;ratioP1;P2;durP2;ratioP2
8191;SDS011;4137;49.764;8.652;2022-07-30T00:01:52;5.82;;;5.72;;
8191;SDS011;4137;49.764;8.652;2022-07-30T00:04:18;6.07;;;5.80;;
8191;SDS011;4137;49.764;8.652;2022-07-30T00:06:44;5.55;;;5.45;;
8191;SDS011;4137;49.764;8.652;2022-07-30T00:09:10;6.30;;;6.10;;
8191;SDS011;4137;49.764;8.652;2022-07-30T00:11:36;5.85;;;5.53;;
8191;SDS011;4137;49.764;8.652;2022-07-30T00:14:02;6.10;;;5.90;;
8191;SDS011;4137;49.764;8.652;2022-07-30T00:16:28;5.72;;;5.43;;
8191;SDS011;4137;49.764;8.652;2022-07-30T00:18:54;5.82;;;5.53;;
8191;SDS011;4137;49.764;8.652;2022-07-30T00:21:20;5.57;;;5.28;;
8191;SDS011;4137;49.764;8.652;2022-07-30T00:23:46;6.25;;;6.05;;
8191;SDS011;4137;49.764;8.652;2022-07-30T00:26:12;5.80;;;5.53;;
8191;SDS011;4137;49.764;8.652;2022-07-30T00:28:38;5.47;;;5.38;;
8191;SDS011;4137;49.764;8.652;2022-07-30T00:31:04;6.07;;;5.88;;
8191;SDS011;4137;49.764;8.652;2022-07-30T00:33:31;6.20;;;5.97;;
8191;SDS011;4137;49.764;8.652;2022-07-30T00:35:57;6.50;;;5.97;;
8191;SDS011;4137;49.764;8.652;2022-07-30T00:38:23;6.35;;;6.05;;
8191;SDS011;4137;49.764;8.652;2022-07-30T00:40:49;6.22;;;6.03;;
8191;SDS011;4137;49.764;8.652;2022-07-30T00:43:15;6.28;;;5.88;;
8191;SDS011;4137;49.764;8.652;2022-07-30T00:45:42;6.50;;;6.20;;
8191;SDS011;4137;49.764;8.652;2022-07-30T00:48:08;5.90;;;5.70;;
8191;SDS011;4137;49.764;8.652;2022-07-30T00:50:36;6.93;;;6.40;;
8191;SDS011;4137;49.764;8.652;2022-07-30T00:53:03;6.30;;;6.10;;
8191;SDS011;4137;49.764;8.652;2022-07-30T00:55:29;6.65;;;6.25;;
8191;SDS011;4137;49.764;8.652;2022-07-30T00:57:55;6.65;;;6.45;;
8191;SDS011;4137;49.764;8.652;2022-07-30T01:00:21;6.57;;;6.20;;
8191;SDS011;4137;49.764;8.652;2022-07-30T01:02:47;6.75;;;6.50;;
8191;SDS011;4137;49.764;8.652;2022-07-30T01:05:13;6.53;;;6.32;;
8191;SDS011;4137;49.764;8.652;2022-07-30T01:07:40;7.00;;;6.70;;
8191;SDS011;4137;49.764;8.652;2022-07-30T01:10:06;6.65;;;6.35;;
8191;SDS011;4137;49.764;8.652;2022-07-30T01:12:33;7.13;;;6.82;;
8191;SDS011;4137;49.764;8.652;2022-07-30T01:14:59;6.97;;;6.45;;
8191;SDS011;4137;49.764;8.652;2022-07-30T01:17:26;7.13;;;6.82;;
8191;SDS011;4137;49.764;8.652;2022-07-30T01:19:52;7.10;;;6.88;;
8191;SDS011;4137;49.764;8.652;2022-07-30T01:22:28;7.50;;;7.20;;
8191;SDS011;4137;49.764;8.652;2022-07-30T01:27:23;7.05;;;6.75;;
8191;SDS011;4137;49.764;8.652;2022-07-30T01:29:49;7.07;;;6.63;;
8191;SDS011;4137;49.764;8.652;2022-07-30T01:32:17;7.20;;;6.90;;
8191;SDS011;4137;49.764;8.652;2022-07-30T01:34:45;6.95;;;6.55;;
8191;SDS011;4137;49.764;8.652;2022-07-30T01:37:11;7.10;;;6.57;;
8191;SDS011;4137;49.764;8.652;2022-07-30T01:39:38;7.05;;;6.55;;
8191;SDS011;4137;49.764;8.652;2022-07-30T01:42:04;7.32;;;6.88;;
8191;SDS011;4137;49.764;8.652;2022-07-30T01:44:33;7.43;;;7.13;;
8191;SDS011;4137;49.764;8.652;2022-07-30T01:46:59;7.75;;;7.15;;
8191;SDS011;4137;49.764;8.652;2022-07-30T01:49:26;7.65;;;7.25;;
8191;SDS011;4137;49.764;8.652;2022-07-30T01:51:53;7.97;;;7.40;;
8191;SDS011;4137;49.764;8.652;2022-07-30T01:54:20;8.00;;;7.35;;
8191;SDS011;4137;49.764;8.652;2022-07-30T01:56:46;7.07;;;6.78;;
8191;SDS011;4137;49.764;8.652;2022-07-30T01:59:15;7.60;;;7.18;;
8191;SDS011;4137;49.764;8.652;2022-07-30T02:01:43;7.28;;;6.97;;
8191;SDS011;4137;49.764;8.652;2022-07-30T02:04:09;7.85;;;7.45;;
8191;SDS011;4137;49.764;8.652;2022-07-30T02:06:43;7.43;;;7.13;;
8191;SDS011;4137;49.764;8.652;2022-07-30T02:11:44;7.72;;;7.32;;
8191;SDS011;4137;49.764;8.652;2022-07-30T02:14:40;7.55;;;7.07;;
8191;SDS011;4137;49.764;8.652;2022-07-30T02:17:11;8.27;;;7.57;;
8191;SDS011;4137;49.764;8.652;2022-07-30T02:19:39;7.68;;;7.18;;
8191;SDS011;4137;49.764;8.652;2022-07-30T02:22:10;7.50;;;7.10;;
8191;SDS011;4137;49.764;8.652;2022-07-30T02:24:37;7.65;;;7.25;;
8191;SDS011;4137;49.764;8.652;2022-07-30T02:27:11;8.05;;;7.63;;
8191;SDS011;4137;49.764;8.652;2022-07-30T02:29:37;8.52;;;7.65;;
8191;SDS011;4137;49.764;8.652;2022-07-30T02:32:04;8.02;;;7.45;;
8191;SDS011;4137;49.764;8.652;2022-07-30T02:34:32;8.48;;;7.88;;
8191;SDS011;4137;49.764;8.652;2022-07-30T02:36:59;7.70;;;7.20;;
8191;SDS011;4137;49.764;8.652;2022-07-30T02:39:25;7.80;;;7.40;;
8191;SDS011;4137;49.764;8.652;2022-07-30T02:41:54;8.00;;;7.50;;
8191;SDS011;4137;49.764;8.652;2022-07-30T02:44:21;7.50;;;7.10;;
8191;SDS011;4137;49.764;8.652;2022-07-30T02:46:48;8.65;;;8.02;;
8191;SDS011;4137;49.764;8.652;2022-07-30T02:49:14;8.68;;;8.18;;
8191;SDS011;4137;49.764;8.652;2022-07-30T02:51:42;8.80;;;8.30;;
8191;SDS011;4137;49.764;8.652;2022-07-30T02:54:08;7.97;;;7.55;;
8191;SDS011;4137;49.764;8.652;2022-07-30T02:56:35;7.95;;;7.55;;
8191;SDS011;4137;49.764;8.652;2022-07-30T02:59:02;8.52;;;8.02;;
8191;SDS011;4137;49.764;8.652;2022-07-30T03:01:28;8.50;;;7.88;;
8191;SDS011;4137;49.764;8.652;2022-07-30T03:03:56;8.63;;;8.13;;
8191;SDS011;4137;49.764;8.652;2022-07-30T03:06:22;8.82;;;8.25;;
8191;SDS011;4137;49.764;8.652;2022-07-30T03:08:49;8.02;;;7.63;;
8191;SDS011;4137;49.764;8.652;2022-07-30T03:11:17;8.40;;;7.80;;
8191;SDS011;4137;49.764;8.652;2022-07-30T03:13:43;8.75;;;8.20;;
8191;SDS011;4137;49.764;8.652;2022-07-30T03:16:10;8.57;;;8.07;;
8191;SDS011;4137;49.764;8.652;2022-07-30T03:18:37;8.90;;;8.40;;
8191;SDS011;4137;49.764;8.652;2022-07-30T03:21:06;8.52;;;8.02;;
8191;SDS011;4137;49.764;8.652;2022-07-30T03:23:32;8.20;;;7.80;;
8191;SDS011;4137;49.764;8.652;2022-07-30T03:26:01;8.60;;;8.15;;
8191;SDS011;4137;49.764;8.652;2022-07-30T03:28:29;8.27;;;7.88;;
8191;SDS011;4137;49.764;8.652;2022-07-30T03:30:55;9.45;;;8.75;;
8191;SDS011;4137;49.764;8.652;2022-07-30T03:33:22;8.70;;;8.10;;
8191;SDS011;4137;49.764;8.652;2022-07-30T03:35:48;9.95;;;8.25;;
8191;SDS011;4137;49.764;8.652;2022-07-30T03:38:15;8.90;;;8.40;;
8191;SDS011;4137;49.764;8.652;2022-07-30T03:40:41;8.77;;;8.30;;
8191;SDS011;4137;49.764;8.652;2022-07-30T03:43:08;8.82;;;8.23;;
8191;SDS011;4137;49.764;8.652;2022-07-30T03:45:39;9.50;;;8.90;;
8191;SDS011;4137;49.764;8.652;2022-07-30T03:48:06;9.27;;;8.70;;
8191;SDS011;4137;49.764;8.652;2022-07-30T03:50:33;8.98;;;8.48;;
8191;SDS011;4137;49.764;8.652;2022-07-30T03:53:00;9.43;;;8.85;;
8191;SDS011;4137;49.764;8.652;2022-07-30T03:55:27;9.40;;;8.90;;
8191;SDS011;4137;49.764;8.652;2022-07-30T03:57:53;9.80;;;9.25;;
8191;SDS011;4137;49.764;8.652;2022-07-30T04:00:20;10.95;;;9.45;;
8191;SDS011;4137;49.764;8.652;2022-07-30T04:02:46;9.70;;;9.20;;
8191;SDS011;4137;49.764;8.652;2022-07-30T04:05:13;10.20;;;9.55;;
8191;SDS011;4137;49.764;8.652;2022-07-30T04:07:39;10.52;;;9.73;;
8191;SDS011;4137;49.764;8.652;2022-07-30T04:10:05;10.10;;;9.40;;
8191;SDS011;4137;49.764;8.652;2022-07-30T04:12:31;9.95;;;9.30;;
8191;SDS011;4137;49.764;8.652;2022-07-30T04:14:57;10.80;;;9.82;;
8191;SDS011;4137;49.764;8.652;2022-07-30T04:17:28;9.93;;;9.40;;
8191;SDS011;4137;49.764;8.652;2022-07-30T04:19:58;10.30;;;9.52;;
8191;SDS011;4137;49.764;8.652;2022-07-30T04:22:29;10.40;;;9.55;;
8191;SDS011;4137;49.764;8.652;2022-07-30T04:24:55;10.68;;;9.82;;
8191;SDS011;4137;49.764;8.652;2022-07-30T04:27:22;11.40;;;9.90;;
8191;SDS011;4137;49.764;8.652;2022-07-30T04:29:51;10.45;;;9.75;;
8191;SDS011;4137;49.764;8.652;2022-07-30T04:32:18;10.55;;;9.75;;
8191;SDS011;4137;49.764;8.652;2022-07-30T04:34:47;9.90;;;9.20;;
8191;SDS011;4137;49.764;8.652;2022-07-30T04:37:14;10.05;;;9.30;;
8191;SDS011;4137;49.764;8.652;2022-07-30T04:39:40;10.25;;;9.55;;
8191;SDS011;4137;49.764;8.652;2022-07-30T04:42:06;10.70;;;10.10;;
8191;SDS011;4137;49.764;8.652;2022-07-30T04:44:33;10.63;;;9.82;;
8191;SDS011;4137;49.764;8.652;2022-07-30T04:46:59;10.60;;;9.93;;
8191;SDS011;4137;49.764;8.652;2022-07-30T04:49:25;10.40;;;9.80;;
8191;SDS011;4137;49.764;8.652;2022-07-30T04:51:51;10.60;;;9.82;;
8191;SDS011;4137;49.764;8.652;2022-07-30T04:54:18;10.95;;;10.00;;
8191;SDS011;4137;49.764;8.652;2022-07-30T04:56:45;10.57;;;9.80;;
8191;SDS011;4137;49.764;8.652;2022-07-30T04:59:12;10.43;;;9.57;;
8191;SDS011;4137;49.764;8.652;2022-07-30T05:01:39;10.20;;;9.50;;
8191;SDS011;4137;49.764;8.652;2022-07-30T05:04:06;10.88;;;10.07;;
8191;SDS011;4137;49.764;8.652;2022-07-30T05:06:33;11.07;;;9.43;;
8191;SDS011;4137;49.764;8.652;2022-07-30T05:09:00;9.80;;;9.15;;
8191;SDS011;4137;49.764;8.652;2022-07-30T05:11:26;10.23;;;9.30;;
8191;SDS011;4137;49.764;8.652;2022-07-30T05:13:52;9.20;;;8.60;;
8191;SDS011;4137;49.764;8.652;2022-07-30T05:16:18;9.52;;;9.02;;
8191;SDS011;4137;49.764;8.652;2022-07-30T05:18:44;9.75;;;9.00;;
8191;SDS011;4137;49.764;8.652;2022-07-30T05:21:10;9.80;;;9.20;;
8191;SDS011;4137;49.764;8.652;2022-07-30T05:23:36;9.60;;;8.85;;
8191;SDS011;4137;49.764;8.652;2022-07-30T05:26:02;9.23;;;8.63;;
8191;SDS011;4137;49.764;8.652;2022-07-30T05:28:28;9.52;;;8.73;;
8191;SDS011;4137;49.764;8.652;2022-07-30T05:30:54;9.68;;;9.00;;
8191;SDS011;4137;49.764;8.652;2022-07-30T05:33:21;9.23;;;8.57;;
8191;SDS011;4137;49.764;8.652;2022-07-30T05:35:47;9.68;;;9.07;;
8191;SDS011;4137;49.764;8.652;2022-07-30T05:38:14;10.38;;;9.50;;
8191;SDS011;4137;49.764;8.652;2022-07-30T05:40:40;9.10;;;8.45;;
8191;SDS011;4137;49.764;8.652;2022-07-30T05:43:06;9.38;;;8.77;;
8191;SDS011;4137;49.764;8.652;2022-07-30T05:45:32;8.88;;;8.27;;
8191;SDS011;4137;49.764;8.652;2022-07-30T05:47:58;8.80;;;8.20;;
8191;SDS011;4137;49.764;8.652;2022-07-30T05:50:24;8.65;;;8.25;;
8191;SDS011;4137;49.764;8.652;2022-07-30T05:52:50;8.23;;;7.60;;
8191;SDS011;4137;49.764;8.652;2022-07-30T05:55:16;7.22;;;6.93;;
8191;SDS011;4137;49.764;8.652;2022-07-30T05:57:42;7.70;;;7.13;;
8191;SDS011;4137;49.764;8.652;2022-07-30T06:00:09;7.03;;;6.70;;
8191;SDS011;4137;49.764;8.652;2022-07-30T06:02:36;7.43;;;6.95;;
8191;SDS011;4137;49.764;8.652;2022-07-30T06:05:03;9.27;;;7.05;;
8191;SDS011;4137;49.764;8.652;2022-07-30T06:07:29;7.47;;;6.95;;
8191;SDS011;4137;49.764;8.652;2022-07-30T06:09:56;5.95;;;5.63;;
8191;SDS011;4137;49.764;8.652;2022-07-30T06:12:25;5.80;;;5.60;;
8191;SDS011;4137;49.764;8.652;2022-07-30T06:14:52;6.40;;;5.88;;
8191;SDS011;4137;49.764;8.652;2022-07-30T06:17:18;6.45;;;6.05;;
8191;SDS011;4137;49.764;8.652;2022-07-30T06:19:44;4.82;;;4.63;;
8191;SDS011;4137;49.764;8.652;2022-07-30T06:22:10;6.13;;;5.72;;
8191;SDS011;4137;49.764;8.652;2022-07-30T06:24:36;5.53;;;5.03;;
8191;SDS011;4137;49.764;8.652;2022-07-30T06:27:02;5.35;;;5.03;;
8191;SDS011;4137;49.764;8.652;2022-07-30T06:29:28;4.80;;;4.53;;
8191;SDS011;4137;49.764;8.652;2022-07-30T06:31:54;6.75;;;6.13;;
8191;SDS011;4137;49.764;8.652;2022-07-30T06:34:20;6.88;;;5.70;;
8191;SDS011;4137;49.764;8.652;2022-07-30T06:36:46;7.72;;;6.00;;
8191;SDS011;4137;49.764;8.652;2022-07-30T06:39:12;5.72;;;5.20;;
8191;SDS011;4137;49.764;8.652;2022-07-30T06:41:38;7.38;;;6.35;;
8191;SDS011;4137;49.764;8.652;2022-07-30T06:44:04;7.15;;;6.35;;
8191;SDS011;4137;49.764;8.652;2022-07-30T06:46:30;11.65;;;7.60;;
8191;SDS011;4137;49.764;8.652;2022-07-30T06:48:56;6.20;;;5.78;;
8191;SDS011;4137;49.764;8.652;2022-07-30T06:51:22;6.05;;;5.55;;
8191;SDS011;4137;49.764;8.652;2022-07-30T06:53:48;5.20;;;4.70;;
8191;SDS011;4137;49.764;8.652;2022-07-30T06:56:14;5.82;;;5.50;;
8191;SDS011;4137;49.764;8.652;2022-07-30T06:58:40;5.28;;;4.90;;
8191;SDS011;4137;49.764;8.652;2022-07-30T07:01:06;6.30;;;4.82;;
8191;SDS011;4137;49.764;8.652;2022-07-30T07:03:32;6.05;;;5.50;;
8191;SDS011;4137;49.764;8.652;2022-07-30T07:05:58;6.05;;;4.75;;
8191;SDS011;4137;49.764;8.652;2022-07-30T07:08:24;5.97;;;5.32;;
8191;SDS011;4137;49.764;8.652;2022-07-30T07:10:50;7.10;;;5.43;;
8191;SDS011;4137;49.764;8.652;2022-07-30T07:13:16;5.07;;;4.72;;
8191;SDS011;4137;49.764;8.652;2022-07-30T07:15:42;5.93;;;5.05;;
8191;SDS011;4137;49.764;8.652;2022-07-30T07:18:08;7.40;;;5.15;;
8191;SDS011;4137;49.764;8.652;2022-07-30T07:20:36;6.10;;;4.82;;
8191;SDS011;4137;49.764;8.652;2022-07-30T07:23:02;5.38;;;5.18;;
8191;SDS011;4137;49.764;8.652;2022-07-30T07:25:28;5.45;;;5.13;;
8191;SDS011;4137;49.764;8.652;2022-07-30T07:27:54;6.38;;;5.35;;
8191;SDS011;4137;49.764;8.652;2022-07-30T07:30:20;5.75;;;5.05;;
8191;SDS011;4137;49.764;8.652;2022-07-30T07:32:46;5.72;;;5.30;;
8191;SDS011;4137;49.764;8.652;2022-07-30T07:35:12;6.75;;;5.30;;
8191;SDS011;4137;49.764;8.652;2022-07-30T07:37:38;6.18;;;5.70;;
8191;SDS011;4137;49.764;8.652;2022-07-30T07:40:05;5.90;;;5.60;;
8191;SDS011;4137;49.764;8.652;2022-07-30T07:42:31;5.70;;;5.30;;
8191;SDS011;4137;49.764;8.652;2022-07-30T07:44:57;8.50;;;6.80;;
8191;SDS011;4137;49.764;8.652;2022-07-30T07:47:23;8.23;;;6.22;;
8191;SDS011;4137;49.764;8.652;2022-07-30T07:49:53;6.60;;;6.30;;
8191;SDS011;4137;49.764;8.652;2022-07-30T07:52:19;8.15;;;7.38;;
8191;SDS011;4137;49.764;8.652;2022-07-30T07:54:45;6.68;;;6.28;;
8191;SDS011;4137;49.764;8.652;2022-07-30T07:57:11;7.32;;;6.63;;
8191;SDS011;4137;49.764;8.652;2022-07-30T07:59:37;11.23;;;6.75;;
8191;SDS011;4137;49.764;8.652;2022-07-30T08:02:03;8.15;;;6.82;;
8191;SDS011;4137;49.764;8.652;2022-07-30T08:04:29;8.77;;;6.45;;
8191;SDS011;4137;49.764;8.652;2022-07-30T08:06:55;7.30;;;6.60;;
8191;SDS011;4137;49.764;8.652;2022-07-30T08:09:21;6.47;;;5.90;;
8191;SDS011;4137;49.764;8.652;2022-07-30T08:11:47;6.57;;;6.00;;
8191;SDS011;4137;49.764;8.652;2022-07-30T08:14:13;7.07;;;6.53;;
8191;SDS011;4137;49.764;8.652;2022-07-30T08:16:39;6.75;;;6.35;;
8191;SDS011;4137;49.764;8.652;2022-07-30T08:19:05;7.72;;;5.68;;
8191;SDS011;4137;49.764;8.652;2022-07-30T08:21:31;7.85;;;7.20;;
8191;SDS011;4137;49.764;8.652;2022-07-30T08:23:57;6.88;;;6.50;;
8191;SDS011;4137;49.764;8.652;2022-07-30T08:26:23;9.88;;;6.88;;
8191;SDS011;4137;49.764;8.652;2022-07-30T08:28:49;8.00;;;7.18;;
8191;SDS011;4137;49.764;8.652;2022-07-30T08:31:15;8.27;;;7.53;;
8191;SDS011;4137;49.764;8.652;2022-07-30T08:33:41;7.80;;;7.13;;
8191;SDS011;4137;49.764;8.652;2022-07-30T08:36:07;8.70;;;7.22;;
8191;SDS011;4137;49.764;8.652;2022-07-30T08:38:34;7.88;;;7.28;;
8191;SDS011;4137;49.764;8.652;2022-07-30T08:41:00;6.45;;;6.00;;
8191;SDS011;4137;49.764;8.652;2022-07-30T08:43:26;6.57;;;6.13;;
8191;SDS011;4137;49.764;8.652;2022-07-30T08:45:53;7.82;;;7.10;;
8191;SDS011;4137;49.764;8.652;2022-07-30T08:48:21;6.85;;;6.22;;
8191;SDS011;4137;49.764;8.652;2022-07-30T08:50:48;6.40;;;6.00;;
8191;SDS011;4137;49.764;8.652;2022-07-30T08:53:14;7.38;;;6.53;;
8191;SDS011;4137;49.764;8.652;2022-07-30T08:55:41;8.57;;;7.97;;
8191;SDS011;4137;49.764;8.652;2022-07-30T08:58:19;7.78;;;7.05;;
8191;SDS011;4137;49.764;8.652;2022-07-30T09:00:48;8.82;;;8.00;;
8191;SDS011;4137;49.764;8.652;2022-07-30T09:03:14;8.80;;;8.10;;
8191;SDS011;4137;49.764;8.652;2022-07-30T09:05:40;12.80;;;7.80;;
8191;SDS011;4137;49.764;8.652;2022-07-30T09:08:06;7.30;;;6.80;;
8191;SDS011;4137;49.764;8.652;2022-07-30T09:10:32;11.18;;;7.57;;
8191;SDS011;4137;49.764;8.652;2022-07-30T09:12:58;9.27;;;8.40;;
8191;SDS011;4137;49.764;8.652;2022-07-30T09:15:25;10.75;;;9.77;;
8191;SDS011;4137;49.764;8.652;2022-07-30T09:17:56;10.27;;;9.30;;
8191;SDS011;4137;49.764;8.652;2022-07-30T09:20:23;9.88;;;8.48;;
8191;SDS011;4137;49.764;8.652;2022-07-30T09:22:51;7.95;;;7.00;;
8191;SDS011;4137;49.764;8.652;2022-07-30T09:25:31;8.00;;;6.75;;
8191;SDS011;4137;49.764;8.652;2022-07-30T09:27:58;8.80;;;4.82;;
8191;SDS011;4137;49.764;8.652;2022-07-30T09:30:24;7.43;;;5.43;;
8191;SDS011;4137;49.764;8.652;2022-07-30T09:32:53;5.78;;;4.70;;
8191;SDS011;4137;49.764;8.652;2022-07-30T09:35:20;5.72;;;4.70;;
8191;SDS011;4137;49.764;8.652;2022-07-30T09:37:46;7.88;;;6.60;;
8191;SDS011;4137;49.764;8.652;2022-07-30T09:40:22;6.18;;;5.55;;
8191;SDS011;4137;49.764;8.652;2022-07-30T09:42:48;5.00;;;4.75;;
8191;SDS011;4137;49.764;8.652;2022-07-30T09:45:25;5.28;;;4.97;;
8191;SDS011;4137;49.764;8.652;2022-07-30T09:47:52;4.72;;;4.57;;
8191;SDS011;4137;49.764;8.652;2022-07-30T09:50:18;5.57;;;4.82;;
8191;SDS011;4137;49.764;8.652;2022-07-30T09:52:45;7.28;;;4.53;;
8191;SDS011;4137;49.764;8.652;2022-07-30T09:55:14;4.50;;;4.00;;
8191;SDS011;4137;49.764;8.652;2022-07-30T09:57:56;4.78;;;4.43;;
8191;SDS011;4137;49.764;8.652;2022-07-30T10:00:23;3.58;;;3.33;;
8191;SDS011;4137;49.764;8.652;2022-07-30T10:02:50;3.45;;;3.25;;
8191;SDS011;4137;49.764;8.652;2022-07-30T10:05:17;4.40;;;4.10;;
8191;SDS011;4137;49.764;8.652;2022-07-30T10:08:01;4.10;;;3.60;;
8191;SDS011;4137;49.764;8.652;2022-07-30T10:10:29;7.40;;;3.50;;
8191;SDS011;4137;49.764;8.652;2022-07-30T10:12:59;3.28;;;3.15;;
8191;SDS011;4137;49.764;8.652;2022-07-30T10:15:33;4.53;;;2.42;;
8191;SDS011;4137;49.764;8.652;2022-07-30T10:17:59;2.30;;;2.20;;
8191;SDS011;4137;49.764;8.652;2022-07-30T10:20:26;2.63;;;2.33;;
8191;SDS011;4137;49.764;8.652;2022-07-30T10:22:52;3.63;;;2.50;;
8191;SDS011;4137;49.764;8.652;2022-07-30T10:25:19;3.10;;;2.90;;
8191;SDS011;4137;49.764;8.652;2022-07-30T10:27:46;2.30;;;2.13;;
8191;SDS011;4137;49.764;8.652;2022-07-30T10:30:12;2.25;;;2.03;;
8191;SDS011;4137;49.764;8.652;2022-07-30T10:32:38;2.45;;;2.10;;
8191;SDS011;4137;49.764;8.652;2022-07-30T10:35:05;4.13;;;2.30;;
8191;SDS011;4137;49.764;8.652;2022-07-30T10:37:32;3.10;;;2.50;;
8191;SDS011;4137;49.764;8.652;2022-07-30T10:40:02;2.60;;;2.05;;
8191;SDS011;4137;49.764;8.652;2022-07-30T10:42:38;2.13;;;2.03;;
8191;SDS011;4137;49.764;8.652;2022-07-30T10:47:47;2.30;;;2.20;;
8191;SDS011;4137;49.764;8.652;2022-07-30T10:50:14;2.40;;;2.17;;
8191;SDS011;4137;49.764;8.652;2022-07-30T10:55:13;4.13;;;2.45;;
8191;SDS011;4137;49.764;8.652;2022-07-30T11:00:24;3.15;;;2.85;;
8191;SDS011;4137;49.764;8.652;2022-07-30T11:08:37;2.95;;;2.75;;
8191;SDS011;4137;49.764;8.652;2022-07-30T11:11:04;2.47;;;2.35;;
8191;SDS011;4137;49.764;8.652;2022-07-30T11:16:15;2.33;;;2.22;;
8191;SDS011;4137;49.764;8.652;2022-07-30T11:19:04;2.67;;;2.47;;
8191;SDS011;4137;49.764;8.652;2022-07-30T11:21:30;3.67;;;2.20;;
8191;SDS011;4137;49.764;8.652;2022-07-30T11:23:57;2.50;;;1.98;;
8191;SDS011;4137;49.764;8.652;2022-07-30T11:31:55;2.10;;;1.95;;
8191;SDS011;4137;49.764;8.652;2022-07-30T11:37:07;5.93;;;2.30;;
8191;SDS011;4137;49.764;8.652;2022-07-30T11:42:29;2.30;;;2.20;;
8191;SDS011;4137;49.764;8.652;2022-07-30T11:47:46;2.15;;;1.55;;
8191;SDS011;4137;49.764;8.652;2022-07-30T11:50:29;1.98;;;1.40;;
8191;SDS011;4137;49.764;8.652;2022-07-30T11:53:02;1.30;;;1.23;;
8191;SDS011;4137;49.764;8.652;2022-07-30T11:56:11;3.58;;;1.30;;
8191;SDS011;4137;49.764;8.652;2022-07-30T11:58:24;2.58;;;1.20;;
8191;SDS011;4137;49.764;8.652;2022-07-30T12:00:50;1.30;;;1.30;;
8191;SDS011;4137;49.764;8.652;2022-07-30T12:03:18;4.07;;;1.60;;
8191;SDS011;4137;49.764;8.652;2022-07-30T12:05:44;1.48;;;1.33;;
8191;SDS011;4137;49.764;8.652;2022-07-30T12:08:11;1.25;;;1.25;;
8191;SDS011;4137;49.764;8.652;2022-07-30T12:10:37;1.20;;;1.20;;
8191;SDS011;4137;49.764;8.652;2022-07-30T12:13:10;1.98;;;1.10;;
8191;SDS011;4137;49.764;8.652;2022-07-30T12:15:46;1.85;;;1.25;;
8191;SDS011;4137;49.764;8.652;2022-07-30T12:18:13;1.17;;;1.17;;
8191;SDS011;4137;49.764;8.652;2022-07-30T12:20:57;2.17;;;1.30;;
8191;SDS011;4137;49.764;8.652;2022-07-30T12:23:24;2.58;;;1.40;;
8191;SDS011;4137;49.764;8.652;2022-07-30T12:25:50;3.10;;;1.20;;
8191;SDS011;4137;49.764;8.652;2022-07-30T12:28:34;3.50;;;1.20;;
8191;SDS011;4137;49.764;8.652;2022-07-30T12:31:01;1.85;;;1.02;;
8191;SDS011;4137;49.764;8.652;2022-07-30T12:33:28;1.05;;;1.05;;
8191;SDS011;4137;49.764;8.652;2022-07-30T12:35:55;1.25;;;0.80;;
8191;SDS011;4137;49.764;8.652;2022-07-30T12:38:22;3.10;;;1.05;;
8191;SDS011;4137;49.764;8.652;2022-07-30T12:41:07;4.53;;;1.20;;
8191;SDS011;4137;49.764;8.652;2022-07-30T12:46:08;1.10;;;0.95;;
8191;SDS011;4137;49.764;8.652;2022-07-30T12:48:35;1.20;;;1.20;;
8191;SDS011;4137;49.764;8.652;2022-07-30T12:51:07;0.98;;;0.98;;
8191;SDS011;4137;49.764;8.652;2022-07-30T12:53:34;1.80;;;1.00;;
8191;SDS011;4137;49.764;8.652;2022-07-30T12:56:10;1.13;;;1.00;;
8191;SDS011;4137;49.764;8.652;2022-07-30T12:58:37;0.95;;;0.95;;
8191;SDS011;4137;49.764;8.652;2022-07-30T13:01:03;2.53;;;0.98;;
8191;SDS011;4137;49.764;8.652;2022-07-30T13:03:30;2.35;;;0.80;;
8191;SDS011;4137;49.764;8.652;2022-07-30T13:11:12;2.40;;;1.05;;
8191;SDS011;4137;49.764;8.652;2022-07-30T13:13:39;4.45;;;0.75;;
8191;SDS011;4137;49.764;8.652;2022-07-30T13:16:05;4.60;;;1.10;;
8191;SDS011;4137;49.764;8.652;2022-07-30T13:18:32;1.23;;;1.10;;
8191;SDS011;4137;49.764;8.652;2022-07-30T13:20:59;1.42;;;1.30;;
8191;SDS011;4137;49.764;8.652;2022-07-30T13:23:25;5.10;;;1.05;;
8191;SDS011;4137;49.764;8.652;2022-07-30T13:25:52;1.77;;;1.15;;
8191;SDS011;4137;49.764;8.652;2022-07-30T13:28:18;1.38;;;0.70;;
8191;SDS011;4137;49.764;8.652;2022-07-30T13:30:45;1.13;;;1.05;;
8191;SDS011;4137;49.764;8.652;2022-07-30T13:33:11;0.90;;;0.90;;
8191;SDS011;4137;49.764;8.652;2022-07-30T13:35:38;3.10;;;1.10;;
8191;SDS011;4137;49.764;8.652;2022-07-30T13:38:04;3.13;;;0.80;;
8191;SDS011;4137;49.764;8.652;2022-07-30T13:40:31;1.95;;;0.90;;
8191;SDS011;4137;49.764;8.652;2022-07-30T13:42:57;0.73;;;0.73;;
8191;SDS011;4137;49.764;8.652;2022-07-30T13:45:24;0.90;;;0.90;;
8191;SDS011;4137;49.764;8.652;2022-07-30T13:47:50;0.90;;;0.90;;
8191;SDS011;4137;49.764;8.652;2022-07-30T13:50:16;1.48;;;0.70;;
8191;SDS011;4137;49.764;8.652;2022-07-30T13:52:42;0.88;;;0.88;;
8191;SDS011;4137;49.764;8.652;2022-07-30T13:55:08;1.10;;;1.00;;
8191;SDS011;4137;49.764;8.652;2022-07-30T13:57:35;1.30;;;0.90;;
8191;SDS011;4137;49.764;8.652;2022-07-30T14:00:01;1.25;;;1.25;;
8191;SDS011;4137;49.764;8.652;2022-07-30T14:02:27;1.10;;;1.10;;
8191;SDS011;4137;49.764;8.652;2022-07-30T14:04:53;1.05;;;1.05;;
8191;SDS011;4137;49.764;8.652;2022-07-30T14:07:19;0.82;;;0.82;;
8191;SDS011;4137;49.764;8.652;2022-07-30T14:09:49;0.82;;;0.82;;
8191;SDS011;4137;49.764;8.652;2022-07-30T14:12:15;1.48;;;1.10;;
8191;SDS011;4137;49.764;8.652;2022-07-30T14:14:41;0.80;;;0.80;;
8191;SDS011;4137;49.764;8.652;2022-07-30T14:17:07;2.20;;;0.90;;
8191;SDS011;4137;49.764;8.652;2022-07-30T14:19:33;1.45;;;0.90;;
8191;SDS011;4137;49.764;8.652;2022-07-30T14:21:59;1.02;;;0.90;;
8191;SDS011;4137;49.764;8.652;2022-07-30T14:24:25;2.40;;;1.70;;
8191;SDS011;4137;49.764;8.652;2022-07-30T14:26:51;0.98;;;0.98;;
8191;SDS011;4137;49.764;8.652;2022-07-30T14:29:17;1.17;;;1.05;;
8191;SDS011;4137;49.764;8.652;2022-07-30T14:31:43;1.65;;;1.10;;
8191;SDS011;4137;49.764;8.652;2022-07-30T14:34:09;1.13;;;1.13;;
8191;SDS011;4137;49.764;8.652;2022-07-30T14:36:36;1.00;;;1.00;;
8191;SDS011;4137;49.764;8.652;2022-07-30T14:39:03;2.38;;;1.27;;
8191;SDS011;4137;49.764;8.652;2022-07-30T14:41:29;1.00;;;1.00;;
8191;SDS011;4137;49.764;8.652;2022-07-30T14:43:56;1.33;;;1.27;;
8191;SDS011;4137;49.764;8.652;2022-07-30T14:46:22;1.90;;;1.35;;
8191;SDS011;4137;49.764;8.652;2022-07-30T14:48:48;1.10;;;1.10;;
8191;SDS011;4137;49.764;8.652;2022-07-30T14:51:14;1.17;;;1.17;;
8191;SDS011;4137;49.764;8.652;2022-07-30T14:53:40;1.67;;;1.58;;
8191;SDS011;4137;49.764;8.652;2022-07-30T14:56:06;1.30;;;1.30;;
8191;SDS011;4137;49.764;8.652;2022-07-30T14:58:33;1.58;;;1.50;;
8191;SDS011;4137;49.764;8.652;2022-07-30T15:00:59;1.55;;;1.45;;
8191;SDS011;4137;49.764;8.652;2022-07-30T15:03:25;1.35;;;1.35;;
8191;SDS011;4137;49.764;8.652;2022-07-30T15:05:51;1.23;;;1.23;;
8191;SDS011;4137;49.764;8.652;2022-07-30T15:08:17;3.03;;;1.05;;
8191;SDS011;4137;49.764;8.652;2022-07-30T15:10:43;4.43;;;1.60;;
8191;SDS011;4137;49.764;8.652;2022-07-30T15:13:09;1.27;;;1.20;;
8191;SDS011;4137;49.764;8.652;2022-07-30T15:15:35;3.33;;;1.20;;
8191;SDS011;4137;49.764;8.652;2022-07-30T15:18:01;1.23;;;1.23;;
8191;SDS011;4137;49.764;8.652;2022-07-30T15:20:27;1.50;;;1.17;;
8191;SDS011;4137;49.764;8.652;2022-07-30T15:22:53;1.23;;;1.23;;
8191;SDS011;4137;49.764;8.652;2022-07-30T15:25:19;8.25;;;1.48;;
8191;SDS011;4137;49.764;8.652;2022-07-30T15:27:47;3.03;;;1.30;;
8191;SDS011;4137;49.764;8.652;2022-07-30T15:30:15;1.25;;;1.25;;
8191;SDS011;4137;49.764;8.652;2022-07-30T15:32:41;5.18;;;1.30;;
8191;SDS011;4137;49.764;8.652;2022-07-30T15:35:07;3.17;;;1.90;;
8191;SDS011;4137;49.764;8.652;2022-07-30T15:37:34;1.27;;;1.02;;
8191;SDS011;4137;49.764;8.652;2022-07-30T15:40:00;1.65;;;1.00;;
8191;SDS011;4137;49.764;8.652;2022-07-30T15:42:26;1.20;;;1.20;;
8191;SDS011;4137;49.764;8.652;2022-07-30T15:44:53;1.42;;;1.38;;
8191;SDS011;4137;49.764;8.652;2022-07-30T15:47:19;1.23;;;1.23;;
8191;SDS011;4137;49.764;8.652;2022-07-30T15:49:46;1.17;;;1.17;;
8191;SDS011;4137;49.764;8.652;2022-07-30T15:52:12;1.00;;;1.00;;
8191;SDS011;4137;49.764;8.652;2022-07-30T15:54:39;2.95;;;1.00;;
8191;SDS011;4137;49.764;8.652;2022-07-30T15:57:05;1.00;;;1.00;;
8191;SDS011;4137;49.764;8.652;2022-07-30T15:59:31;3.50;;;1.15;;